Time;durP1;ratioP1;P1;durP2;ratioP2;P2;SDS_P1;SDS_P2;PMS_P1;PMS_P2;Temp;Humidity;BMP_temperature;BMP_pressure;BME280_temperature;BME280_humidity;BME280_pressure;Samples;Min_cycle;Max_cycle;Signal;HPM_P1;HPM_P2
2021/12/06 00:01:00;;;;;;;0.10;0.10;;;3.90;99.90;;;;;;4990684;28;20046;-83
2021/12/06 00:03:35;;;;;;;0.28;0.28;;;4.00;99.90;;;;;;4986534;28;20027;-83
2021/12/06 00:06:01;;;;;;;0.10;0.10;;;4.00;99.90;;;;;;4991494;28;20023;-83
2021/12/06 00:08:27;;;;;;;0.10;0.10;;;4.00;99.90;;;;;;4995115;28;20103;-83
2021/12/06 00:10:52;;;;;;;1.73;1.63;;;4.20;99.90;;;;;;4983839;28;20030;-84
2021/12/06 00:13:22;;;;;;;0.10;0.10;;;4.00;99.90;;;;;;4989061;28;20033;-81
2021/12/06 00:15:49;;;;;;;0.85;0.85;;;4.00;99.90;;;;;;4957700;29;20102;-83
2021/12/06 00:18:15;;;;;;;0.35;0.35;;;4.00;99.90;;;;;;4973249;28;20067;-83
2021/12/06 00:20:41;;;;;;;0.10;0.10;;;4.00;99.90;;;;;;4976181;28;20450;-84
2021/12/06 00:23:06;;;;;;;0.10;0.10;;;4.00;99.90;;;;;;4976255;28;20082;-84
2021/12/06 00:25:32;;;;;;;0.10;0.10;;;4.00;99.90;;;;;;4957108;28;20093;-81
2021/12/06 00:27:58;;;;;;;0.10;0.10;;;4.00;99.90;;;;;;4956565;29;20055;-82
2021/12/06 00:30:24;;;;;;;0.10;0.10;;;4.00;99.90;;;;;;4955736;28;20492;-83
2021/12/06 00:32:49;;;;;;;0.10;0.10;;;4.00;99.90;;;;;;4956468;28;20023;-83
2021/12/06 00:35:22;;;;;;;0.10;0.10;;;4.00;99.90;;;;;;4984686;28;20018;-83
2021/12/06 00:38:09;;;;;;;0.75;0.75;;;3.90;99.90;;;;;;4975566;28;20035;-83
2021/12/06 00:40:38;;;;;;;0.10;0.10;;;4.00;99.90;;;;;;4975286;28;20031;-82
2021/12/06 00:43:05;;;;;;;0.55;0.55;;;3.90;99.90;;;;;;4974891;28;20015;-82
2021/12/06 00:45:32;;;;;;;0.10;0.10;;;4.00;99.90;;;;;;4968694;28;20030;-83
2021/12/06 00:47:58;;;;;;;0.40;0.40;;;4.00;99.90;;;;;;4966497;28;20521;-82
2021/12/06 00:50:26;;;;;;;0.10;0.10;;;4.10;99.90;;;;;;4955586;28;20131;-83
2021/12/06 00:52:52;;;;;;;0.10;0.10;;;4.00;99.90;;;;;;4955091;28;20043;-82
2021/12/06 00:55:20;;;;;;;0.10;0.10;;;4.10;99.90;;;;;;4957791;28;20404;-83
2021/12/06 00:57:48;;;;;;;0.10;0.10;;;4.10;99.90;;;;;;4975213;28;20043;-83
2021/12/06 01:00:35;;;;;;;0.10;0.10;;;4.10;99.90;;;;;;4964529;28;20099;-84
2021/12/06 01:03:02;;;;;;;0.10;0.10;;;4.00;99.90;;;;;;4955821;28;20023;-84
2021/12/06 01:05:28;;;;;;;0.10;0.10;;;4.00;99.90;;;;;;4969767;28;20030;-83
2021/12/06 01:07:54;;;;;;;0.10;0.10;;;4.00;99.90;;;;;;4973514;28;20062;-84
2021/12/06 01:10:22;;;;;;;1.55;1.55;;;4.00;99.90;;;;;;4974849;28;20027;-84
2021/12/06 01:12:48;;;;;;;0.10;0.10;;;4.00;99.90;;;;;;4974179;28;20038;-84
2021/12/06 01:15:14;;;;;;;0.20;0.20;;;4.00;99.90;;;;;;4977616;28;20315;-83
2021/12/06 01:17:40;;;;;;;1.27;1.23;;;4.00;99.90;;;;;;4955829;29;20027;-83
2021/12/06 01:20:11;;;;;;;0.10;0.10;;;4.00;99.90;;;;;;4956078;28;20488;-83
2021/12/06 01:22:48;;;;;;;0.10;0.10;;;3.90;99.90;;;;;;4956088;28;20031;-82
2021/12/06 01:25:56;;;;;;;0.10;0.10;;;3.90;99.90;;;;;;4986911;28;20029;-82
2021/12/06 01:41:27;;;;;;;0.10;0.10;;;3.80;99.90;;;;;;4964496;28;20030;-82
2021/12/06 01:44:08;;;;;;;0.22;0.22;;;3.80;99.90;;;;;;4976008;28;20054;-82
2021/12/06 01:46:55;;;;;;;0.10;0.10;;;3.80;99.90;;;;;;4974016;28;20026;-81
2021/12/06 01:49:23;;;;;;;1.08;1.08;;;3.80;99.90;;;;;;4974384;28;20031;-82
2021/12/06 01:51:51;;;;;;;0.10;0.10;;;3.80;99.90;;;;;;4978663;28;20182;-82
2021/12/06 01:54:17;;;;;;;0.10;0.10;;;3.80;99.90;;;;;;4968432;28;20583;-83
2021/12/06 01:56:44;;;;;;;0.10;0.10;;;3.90;99.90;;;;;;4984200;28;20018;-82
2021/12/06 01:59:12;;;;;;;0.10;0.10;;;3.80;99.90;;;;;;4996727;28;20019;-83
2021/12/06 02:01:38;;;;;;;0.10;0.10;;;3.80;99.90;;;;;;4977836;28;20035;-84
2021/12/06 02:04:05;;;;;;;0.17;0.17;;;3.80;99.90;;;;;;4961327;28;20484;-83
2021/12/06 02:06:31;;;;;;;0.10;0.10;;;3.80;99.90;;;;;;4954130;29;20028;-83
2021/12/06 02:08:58;;;;;;;0.40;0.40;;;3.80;99.90;;;;;;4954052;29;20038;-83
2021/12/06 02:11:27;;;;;;;1.48;1.38;;;3.80;99.90;;;;;;4953530;28;20023;-83
2021/12/06 02:14:02;;;;;;;0.10;0.10;;;3.80;99.90;;;;;;4970274;28;20093;-81
2021/12/06 02:16:53;;;;;;;0.10;0.10;;;3.80;99.90;;;;;;4953637;28;20094;-83
2021/12/06 02:19:19;;;;;;;0.10;0.10;;;3.80;99.90;;;;;;4953859;28;20054;-82
2021/12/06 02:21:46;;;;;;;0.10;0.10;;;3.80;99.90;;;;;;4954503;28;20082;-82
2021/12/06 02:24:11;;;;;;;0.10;0.10;;;3.80;99.90;;;;;;4958188;28;20023;-83
2021/12/06 02:26:40;;;;;;;0.10;0.10;;;3.80;99.90;;;;;;4977856;28;20041;-82
2021/12/06 02:29:07;;;;;;;0.10;0.10;;;3.80;99.90;;;;;;4984041;28;20113;-83
2021/12/06 02:31:33;;;;;;;0.10;0.10;;;3.80;99.90;;;;;;4968979;28;20473;-83
2021/12/06 02:33:58;;;;;;;0.38;0.38;;;3.80;99.90;;;;;;4981478;28;20034;-83
2021/12/06 02:36:26;;;;;;;0.10;0.10;;;3.80;99.90;;;;;;4953582;28;20034;-83
2021/12/06 02:38:52;;;;;;;0.10;0.10;;;3.70;99.90;;;;;;4972656;28;20027;-83
2021/12/06 02:41:18;;;;;;;0.10;0.10;;;3.60;99.90;;;;;;4955868;28;20174;-83
2021/12/06 02:43:45;;;;;;;0.65;0.65;;;3.60;99.90;;;;;;4954050;28;20030;-84
2021/12/06 02:46:11;;;;;;;0.10;0.10;;;3.90;99.90;;;;;;4973711;28;20023;-83
2021/12/06 02:48:37;;;;;;;0.10;0.10;;;3.70;99.90;;;;;;4967303;28;20493;-83
2021/12/06 02:51:05;;;;;;;0.10;0.10;;;3.70;99.90;;;;;;4956638;28;20038;-81
2021/12/06 02:53:33;;;;;;;0.10;0.10;;;3.60;99.90;;;;;;4981608;28;20050;-83
2021/12/06 02:56:04;;;;;;;0.63;0.63;;;3.60;99.90;;;;;;4988864;28;20026;-84
2021/12/06 03:01:13;;;;;;;0.30;0.30;;;3.60;99.90;;;;;;4992100;28;20072;-83
2021/12/06 03:03:39;;;;;;;4.20;3.63;;;3.70;99.90;;;;;;4991304;28;20039;-83
2021/12/06 03:06:05;;;;;;;0.10;0.10;;;3.70;99.90;;;;;;4990886;28;20015;-83
2021/12/06 03:08:45;;;;;;;0.20;0.20;;;3.70;99.90;;;;;;4987640;28;20046;-82
2021/12/06 03:11:29;;;;;;;0.10;0.10;;;3.50;99.90;;;;;;4995031;28;20087;-82
2021/12/06 03:13:55;;;;;;;;;;;3.50;99.90;;;;;;4984657;28;20073;-83
2021/12/06 03:16:21;;;;;;;0.10;0.10;;;3.50;99.90;;;;;;4992592;28;19902;-83
2021/12/06 03:18:48;;;;;;;0.10;0.10;;;3.50;99.90;;;;;;4994147;28;20033;-82
2021/12/06 03:21:16;;;;;;;0.30;0.30;;;3.40;99.90;;;;;;4981856;28;20023;-82
2021/12/06 03:23:42;;;;;;;0.28;0.28;;;3.40;99.90;;;;;;4979275;28;20023;-82
2021/12/06 03:26:08;;;;;;;0.63;0.63;;;3.40;99.90;;;;;;4959380;28;20027;-82
2021/12/06 03:28:42;;;;;;;0.10;0.10;;;3.40;99.90;;;;;;4974224;28;20031;-82
2021/12/06 03:31:08;;;;;;;2.05;1.85;;;3.50;99.90;;;;;;4971766;28;20497;-83
2021/12/06 03:33:36;;;;;;;0.10;0.10;;;3.50;99.90;;;;;;4968658;28;20504;-82
2021/12/06 03:36:07;;;;;;;0.35;0.35;;;3.50;99.90;;;;;;4973346;28;20045;-83
2021/12/06 03:38:34;;;;;;;0.10;0.10;;;3.50;99.90;;;;;;4972570;28;20512;-83
2021/12/06 03:41:00;;;;;;;0.20;0.20;;;3.40;99.90;;;;;;4987148;28;20321;-83
2021/12/06 03:43:26;;;;;;;0.10;0.10;;;3.40;99.90;;;;;;4979209;28;20077;-83
2021/12/06 03:45:52;;;;;;;0.10;0.10;;;3.50;99.90;;;;;;4969024;28;20554;-83
2021/12/06 03:48:18;;;;;;;0.10;0.10;;;3.50;99.90;;;;;;4970207;28;20023;-82
2021/12/06 03:50:44;;;;;;;0.90;0.90;;;3.60;99.90;;;;;;4977914;28;20035;-83
2021/12/06 03:53:10;;;;;;;0.40;0.40;;;3.60;99.90;;;;;;4981843;28;20042;-83
2021/12/06 03:55:36;;;;;;;0.52;0.52;;;3.60;99.90;;;;;;4997857;28;20035;-83
2021/12/06 03:58:03;;;;;;;0.13;0.13;;;3.50;99.90;;;;;;4977974;28;20098;-84
2021/12/06 04:00:29;;;;;;;0.10;0.10;;;3.70;99.90;;;;;;4979399;28;20034;-81
2021/12/06 04:02:55;;;;;;;0.50;0.50;;;3.50;99.90;;;;;;4981028;28;20027;-83
2021/12/06 04:05:21;;;;;;;0.95;0.95;;;3.50;99.90;;;;;;4997773;28;20023;-83
2021/12/06 04:07:46;;;;;;;0.10;0.10;;;3.50;99.90;;;;;;4969688;28;20471;-83
2021/12/06 04:10:12;;;;;;;0.10;0.10;;;3.50;99.90;;;;;;4974455;28;20049;-83
2021/12/06 04:12:39;;;;;;;0.10;0.10;;;3.50;99.90;;;;;;4976263;28;20455;-83
2021/12/06 04:15:08;;;;;;;0.17;0.17;;;3.50;99.90;;;;;;4975924;28;20105;-83
2021/12/06 04:17:35;;;;;;;0.10;0.10;;;3.50;99.90;;;;;;4962090;28;20069;-83
2021/12/06 04:20:04;;;;;;;0.20;0.20;;;3.80;99.90;;;;;;4954642;28;20024;-83
2021/12/06 04:22:30;;;;;;;0.10;0.10;;;3.40;99.90;;;;;;4956565;28;20023;-83
2021/12/06 04:24:58;;;;;;;0.10;0.10;;;3.40;99.90;;;;;;4962536;28;20102;-84
2021/12/06 04:27:24;;;;;;;0.10;0.10;;;3.50;99.90;;;;;;4974213;28;20035;-84
2021/12/06 04:29:52;;;;;;;0.10;0.10;;;3.50;99.90;;;;;;4975056;28;20165;-84
2021/12/06 04:32:19;;;;;;;0.30;0.30;;;3.50;99.90;;;;;;4973880;28;20029;-84
2021/12/06 04:34:45;;;;;;;0.10;0.10;;;3.40;99.90;;;;;;4972862;28;20120;-84
2021/12/06 04:37:11;;;;;;;0.10;0.10;;;3.40;99.90;;;;;;4975609;28;20033;-84
2021/12/06 04:39:38;;;;;;;0.10;0.10;;;3.50;99.90;;;;;;4975022;28;20126;-82
2021/12/06 04:42:04;;;;;;;0.10;0.10;;;3.60;99.90;;;;;;4970345;28;20027;-82
2021/12/06 04:44:31;;;;;;;0.30;0.30;;;3.60;99.90;;;;;;4956430;28;20034;-83
2021/12/06 04:46:57;;;;;;;0.10;0.10;;;3.60;99.90;;;;;;4956046;28;20028;-82
2021/12/06 04:49:25;;;;;;;1.55;0.73;;;3.60;99.90;;;;;;4956588;28;20024;-82
2021/12/06 04:51:54;;;;;;;0.10;0.10;;;3.60;99.90;;;;;;4957855;28;20035;-82
2021/12/06 04:54:23;;;;;;;0.10;0.10;;;3.60;99.90;;;;;;4984583;28;20125;-81
2021/12/06 04:56:56;;;;;;;0.10;0.10;;;3.60;99.90;;;;;;4995454;28;20030;-82
2021/12/06 04:59:39;;;;;;;;;;;3.70;99.90;;;;;;4982977;28;20421;-82
2021/12/06 05:02:36;;;;;;;0.20;0.20;;;3.70;99.90;;;;;;4971675;28;20001;-82
2021/12/06 05:05:07;;;;;;;0.28;0.28;;;3.70;99.90;;;;;;4977478;28;20113;-81
2021/12/06 05:07:38;;;;;;;0.10;0.10;;;3.70;99.90;;;;;;4991765;28;20030;-81
2021/12/06 05:10:07;;;;;;;0.10;0.10;;;3.70;99.90;;;;;;4990854;28;20064;-81
2021/12/06 05:12:33;;;;;;;0.10;0.10;;;3.70;99.90;;;;;;4991402;28;20019;-81
2021/12/06 05:14:59;;;;;;;0.17;0.17;;;3.70;99.90;;;;;;4996978;28;20042;-81
2021/12/06 05:17:25;;;;;;;0.20;0.20;;;3.60;99.90;;;;;;4983248;28;20030;-82
2021/12/06 05:19:51;;;;;;;0.32;0.32;;;3.70;99.90;;;;;;4975039;28;20041;-81
2021/12/06 05:22:18;;;;;;;1.75;1.65;;;3.70;99.90;;;;;;4974700;28;20031;-81
2021/12/06 05:24:43;;;;;;;0.10;0.10;;;3.70;99.90;;;;;;4962328;28;20029;-81
2021/12/06 05:27:10;;;;;;;0.17;0.17;;;3.70;99.90;;;;;;4971943;28;20122;-82
2021/12/06 05:29:35;;;;;;;0.10;0.10;;;3.70;99.90;;;;;;4974362;28;20112;-82
2021/12/06 05:32:02;;;;;;;0.10;0.10;;;3.70;99.90;;;;;;4974484;28;20388;-82
2021/12/06 05:34:36;;;;;;;1.35;1.17;;;3.70;99.90;;;;;;4968000;28;20015;-81
2021/12/06 05:37:03;;;;;;;8.25;2.45;;;3.60;99.90;;;;;;4954734;28;20086;-82
2021/12/06 05:39:30;;;;;;;0.13;0.13;;;3.60;99.90;;;;;;4955518;28;20026;-82
2021/12/06 05:42:01;;;;;;;0.10;0.10;;;3.60;99.90;;;;;;4974517;28;20043;-82
2021/12/06 05:44:27;;;;;;;0.15;0.15;;;3.60;99.90;;;;;;4974034;28;20031;-81
2021/12/06 05:46:53;;;;;;;0.10;0.10;;;3.60;99.90;;;;;;4981854;28;20084;-82
2021/12/06 05:49:20;;;;;;;0.30;0.30;;;3.70;99.90;;;;;;4984164;28;20018;-82
2021/12/06 05:51:45;;;;;;;0.10;0.10;;;3.70;99.90;;;;;;4972352;28;20066;-82
2021/12/06 05:54:11;;;;;;;0.10;0.10;;;3.60;99.90;;;;;;4968605;28;20019;-83
2021/12/06 05:56:37;;;;;;;0.35;0.35;;;3.70;99.90;;;;;;4969220;28;20153;-82
2021/12/06 05:59:03;;;;;;;0.75;0.45;;;3.80;99.90;;;;;;4964992;28;20460;-81
2021/12/06 06:01:30;;;;;;;0.10;0.10;;;3.60;99.90;;;;;;4970275;28;20018;-82
2021/12/06 06:04:01;;;;;;;0.38;0.38;;;3.60;99.90;;;;;;4970077;28;20110;-83
2021/12/06 06:06:28;;;;;;;0.20;0.20;;;3.60;99.90;;;;;;5009653;23;20015;-80
2021/12/06 06:08:54;;;;;;;0.10;0.10;;;3.60;99.90;;;;;;4926561;29;20130;-80
2021/12/06 06:11:19;;;;;;;0.10;0.10;;;3.60;99.90;;;;;;4942243;29;20174;-80
2021/12/06 06:13:45;;;;;;;0.10;0.10;;;3.60;99.90;;;;;;4933497;29;20509;-80
2021/12/06 06:16:11;;;;;;;0.10;0.10;;;3.60;99.90;;;;;;4933167;29;20520;-81
2021/12/06 06:18:37;;;;;;;0.10;0.10;;;3.70;99.90;;;;;;4923811;29;20032;-83
2021/12/06 06:21:02;;;;;;;0.10;0.10;;;3.60;99.90;;;;;;4933430;29;20079;-80
2021/12/06 06:23:28;;;;;;;0.10;0.10;;;3.60;99.90;;;;;;4933206;29;20397;-81
2021/12/06 06:25:57;;;;;;;0.10;0.10;;;3.60;99.90;;;;;;4925066;29;20032;-80
2021/12/06 06:28:23;;;;;;;0.40;0.40;;;3.60;99.90;;;;;;4931135;29;20107;-80
2021/12/06 06:30:49;;;;;;;0.10;0.10;;;3.60;99.90;;;;;;4918394;29;20160;-80
2021/12/06 06:33:14;;;;;;;0.20;0.20;;;3.70;99.90;;;;;;4928104;29;20032;-80
2021/12/06 06:35:40;;;;;;;0.17;0.17;;;3.70;99.90;;;;;;4928329;29;20036;-80
2021/12/06 06:38:06;;;;;;;0.10;0.10;;;3.60;99.90;;;;;;4928238;29;20533;-80
2021/12/06 06:40:33;;;;;;;0.70;0.70;;;3.70;99.90;;;;;;4930758;29;20026;-79
2021/12/06 06:42:58;;;;;;;0.75;0.75;;;3.70;99.90;;;;;;4945425;29;20031;-80
2021/12/06 06:45:24;;;;;;;0.10;0.10;;;3.60;99.90;;;;;;4933732;29;20043;-81
2021/12/06 06:47:51;;;;;;;0.10;0.10;;;3.60;99.90;;;;;;4923851;29;20028;-80
2021/12/06 06:50:18;;;;;;;0.10;0.10;;;3.60;99.90;;;;;;4931851;29;20135;-80
2021/12/06 06:52:43;;;;;;;0.10;0.10;;;3.60;99.90;;;;;;4932958;29;20039;-79
2021/12/06 06:55:10;;;;;;;0.10;0.10;;;3.60;99.90;;;;;;4932410;29;20028;-82
2021/12/06 06:57:37;;;;;;;0.20;0.20;;;3.60;99.90;;;;;;4927823;29;20470;-81
2021/12/06 07:00:09;;;;;;;0.20;0.20;;;3.70;99.90;;;;;;4929848;29;20051;-80
2021/12/06 07:02:34;;;;;;;1.10;1.10;;;3.70;99.90;;;;;;4932027;29;20537;-79
2021/12/06 07:05:00;;;;;;;0.10;0.10;;;3.60;99.90;;;;;;4930127;29;20044;-80
2021/12/06 07:07:26;;;;;;;0.10;0.10;;;3.60;99.90;;;;;;4925124;29;20044;-80
2021/12/06 07:09:52;;;;;;;0.32;0.32;;;3.70;99.90;;;;;;4927205;29;20104;-80
2021/12/06 07:12:18;;;;;;;0.17;0.17;;;3.70;99.90;;;;;;4933521;29;20548;-79
2021/12/06 07:14:47;;;;;;;0.20;0.20;;;3.80;99.90;;;;;;4949239;29;20027;-80
2021/12/06 07:17:12;;;;;;;0.10;0.10;;;3.50;99.90;;;;;;4925428;29;20399;-79
2021/12/06 07:19:38;;;;;;;0.10;0.10;;;3.40;99.90;;;;;;4928020;29;20032;-80
2021/12/06 07:22:04;;;;;;;0.10;0.10;;;3.40;99.90;;;;;;4932401;29;20024;-80
2021/12/06 07:24:30;;;;;;;0.10;0.10;;;3.40;99.90;;;;;;4926422;29;20035;-79
2021/12/06 07:26:56;;;;;;;0.63;0.63;;;3.50;99.90;;;;;;4913439;29;20482;-80
2021/12/06 07:29:23;;;;;;;0.20;0.20;;;4.20;99.90;;;;;;4923110;29;20486;-79
2021/12/06 07:31:49;;;;;;;0.10;0.10;;;3.60;99.90;;;;;;4930139;29;20035;-80
2021/12/06 07:34:15;;;;;;;0.20;0.20;;;3.60;99.90;;;;;;4913199;29;20038;-80
2021/12/06 07:36:40;;;;;;;2.72;2.55;;;3.50;99.90;;;;;;4913188;29;20039;-80
2021/12/06 07:39:07;;;;;;;0.10;0.10;;;3.60;99.90;;;;;;4912691;29;20048;-79
2021/12/06 07:41:33;;;;;;;0.10;0.10;;;3.60;99.90;;;;;;4930775;29;20493;-81
2021/12/06 07:44:00;;;;;;;0.10;0.10;;;3.50;99.90;;;;;;4935239;29;20078;-81
2021/12/06 07:46:26;;;;;;;1.42;1.33;;;3.50;99.90;;;;;;4933489;28;20028;-79
2021/12/06 07:48:52;;;;;;;0.10;0.10;;;3.40;99.90;;;;;;4934483;29;20027;-79
2021/12/06 07:51:27;;;;;;;0.10;0.10;;;3.60;99.90;;;;;;4930863;29;20036;-80
2021/12/06 07:53:53;;;;;;;0.10;0.10;;;3.50;99.90;;;;;;4929720;29;20024;-81
2021/12/06 07:56:19;;;;;;;0.20;0.20;;;3.50;99.90;;;;;;4932210;29;20038;-80
2021/12/06 07:58:45;;;;;;;0.10;0.10;;;3.60;99.90;;;;;;4935464;29;20035;-83
2021/12/06 08:01:12;;;;;;;0.10;0.10;;;3.70;99.90;;;;;;4920535;29;20100;-80
2021/12/06 08:03:39;;;;;;;0.10;0.10;;;3.70;99.90;;;;;;4932862;28;20039;-79
2021/12/06 08:06:05;;;;;;;0.10;0.10;;;3.80;99.90;;;;;;4937666;29;20083;-80
2021/12/06 08:08:32;;;;;;;0.10;0.10;;;3.80;99.90;;;;;;4938023;29;20031;-80
2021/12/06 08:11:05;;;;;;;0.10;0.10;;;4.10;99.90;;;;;;4940076;29;20047;-79
2021/12/06 08:13:33;;;;;;;;;;;3.80;99.90;;;;;;4945286;28;20504;-79
2021/12/06 08:16:03;;;;;;;0.20;0.20;;;3.70;99.90;;;;;;4946535;29;19915;-80
2021/12/06 08:18:29;;;;;;;0.20;0.20;;;3.70;99.90;;;;;;4940949;29;20047;-81
2021/12/06 08:20:56;;;;;;;0.10;0.10;;;3.70;99.90;;;;;;4961552;28;20023;-80
2021/12/06 08:23:23;;;;;;;0.10;0.10;;;3.80;99.90;;;;;;4942066;29;20032;-80
2021/12/06 08:25:50;;;;;;;0.10;0.10;;;3.80;99.90;;;;;;4939034;29;20049;-80
2021/12/06 08:28:17;;;;;;;0.10;0.10;;;3.90;99.90;;;;;;4931100;29;20028;-80
2021/12/06 08:30:44;;;;;;;0.55;0.55;;;4.00;99.90;;;;;;4936610;29;20055;-79
2021/12/06 08:33:11;;;;;;;0.10;0.10;;;4.00;99.90;;;;;;4936996;29;20027;-79
2021/12/06 08:35:40;;;;;;;0.10;0.10;;;3.90;99.90;;;;;;4938644;29;20024;-79
2021/12/06 08:38:07;;;;;;;0.20;0.20;;;4.00;99.90;;;;;;4941764;29;20035;-81
2021/12/06 08:40:33;;;;;;;0.20;0.20;;;4.00;99.90;;;;;;4939402;29;20019;-81
2021/12/06 08:42:59;;;;;;;0.10;0.10;;;4.00;99.90;;;;;;4939405;29;20028;-81
2021/12/06 08:45:27;;;;;;;0.45;0.45;;;4.00;99.90;;;;;;4939261;29;20255;-79
2021/12/06 08:47:53;;;;;;;0.10;0.10;;;4.10;99.90;;;;;;4942431;29;20039;-80
2021/12/06 08:50:24;;;;;;;0.15;0.15;;;4.10;99.90;;;;;;4936273;29;20133;-82
2021/12/06 08:52:53;;;;;;;0.10;0.10;;;4.20;99.90;;;;;;4935168;29;20320;-81
2021/12/06 08:55:19;;;;;;;0.10;0.10;;;4.30;99.90;;;;;;4943262;29;20028;-79
2021/12/06 08:57:45;;;;;;;0.10;0.10;;;4.40;99.90;;;;;;4941534;29;20043;-80
2021/12/06 09:00:20;;;;;;;1.17;1.17;;;4.50;99.90;;;;;;4938727;29;20020;-80
2021/12/06 09:02:47;;;;;;;0.10;0.10;;;4.40;99.90;;;;;;4940715;29;20046;-80
2021/12/06 09:05:13;;;;;;;0.10;0.10;;;4.40;99.90;;;;;;4937769;29;20024;-80
2021/12/06 09:07:39;;;;;;;0.10;0.10;;;4.30;99.90;;;;;;4932863;29;20035;-80
2021/12/06 09:10:09;;;;;;;0.10;0.10;;;4.50;99.90;;;;;;4939459;29;20039;-80
2021/12/06 09:12:35;;;;;;;0.10;0.10;;;4.60;99.90;;;;;;4939393;29;20019;-79
2021/12/06 09:15:06;;;;;;;0.10;0.10;;;4.70;99.90;;;;;;4937748;29;20032;-78
2021/12/06 09:17:32;;;;;;;0.45;0.45;;;4.70;99.90;;;;;;4936849;29;20134;-79
2021/12/06 09:19:58;;;;;;;0.10;0.10;;;4.60;99.90;;;;;;4936764;29;20059;-78
2021/12/06 09:22:25;;;;;;;0.22;0.22;;;4.70;99.90;;;;;;4940102;29;20564;-79
2021/12/06 09:24:51;;;;;;;0.75;0.75;;;4.80;99.90;;;;;;4936870;29;20110;-80
2021/12/06 09:27:18;;;;;;;0.10;0.10;;;4.90;99.90;;;;;;4937388;29;20064;-78
2021/12/06 09:29:44;;;;;;;0.10;0.10;;;5.00;99.90;;;;;;4934335;29;20024;-79
2021/12/06 09:32:13;;;;;;;0.10;0.10;;;5.00;99.90;;;;;;4937627;29;20071;-79
2021/12/06 09:34:43;;;;;;;0.10;0.10;;;5.00;99.90;;;;;;4933449;29;20572;-80
2021/12/06 09:37:09;;;;;;;3.58;3.30;;;5.00;99.90;;;;;;4937236;29;20027;-80
2021/12/06 09:39:35;;;;;;;0.73;0.73;;;5.00;99.90;;;;;;4936385;29;20024;-80
2021/12/06 09:42:01;;;;;;;0.10;0.10;;;4.80;99.90;;;;;;4938157;29;20106;-80
2021/12/06 09:44:28;;;;;;;0.10;0.10;;;4.90;99.90;;;;;;4939446;29;20031;-78
2021/12/06 09:46:54;;;;;;;0.10;0.10;;;5.00;99.90;;;;;;4938182;29;20028;-80
2021/12/06 09:49:22;;;;;;;0.10;0.10;;;5.00;99.90;;;;;;4939526;29;20234;-79
2021/12/06 09:52:01;;;;;;;4.95;2.05;;;5.10;99.90;;;;;;4935895;29;20031;-80
2021/12/06 09:54:31;;;;;;;0.10;0.10;;;5.00;99.90;;;;;;4936821;29;20396;-80
2021/12/06 09:56:59;;;;;;;0.30;0.30;;;5.00;99.90;;;;;;4936971;29;20087;-79
2021/12/06 09:59:27;;;;;;;2.05;1.95;;;5.10;99.90;;;;;;4937956;29;20069;-79
2021/12/06 10:02:12;;;;;;;0.10;0.10;;;5.10;99.90;;;;;;4934410;29;20038;-79
2021/12/06 10:04:48;;;;;;;0.10;0.10;;;5.10;99.90;;;;;;4935586;29;20032;-79
2021/12/06 10:07:15;;;;;;;0.30;0.30;;;5.20;99.90;;;;;;4933263;29;20058;-80
2021/12/06 10:09:42;;;;;;;0.10;0.10;;;5.20;99.90;;;;;;4930994;29;20027;-80
2021/12/06 10:12:09;;;;;;;1.48;1.38;;;5.40;99.90;;;;;;4931666;29;20032;-79
2021/12/06 10:14:37;;;;;;;0.10;0.10;;;5.50;99.90;;;;;;4929810;29;20042;-80
2021/12/06 10:17:04;;;;;;;0.10;0.10;;;5.40;99.90;;;;;;4932709;29;20020;-79
2021/12/06 10:19:31;;;;;;;1.27;1.17;;;5.30;99.90;;;;;;4931436;29;20038;-79
2021/12/06 10:21:56;;;;;;;0.10;0.10;;;5.30;99.90;;;;;;4930262;29;20039;-79
2021/12/06 10:24:25;;;;;;;0.35;0.35;;;5.30;99.90;;;;;;4931217;29;20094;-79
2021/12/06 10:27:07;;;;;;;0.10;0.10;;;5.10;99.90;;;;;;4931687;29;20020;-81
2021/12/06 10:29:53;;;;;;;0.10;0.10;;;5.10;99.90;;;;;;4929307;29;20028;-80
2021/12/06 10:32:24;;;;;;;0.10;0.10;;;5.10;99.90;;;;;;4931180;29;20052;-80
2021/12/06 10:35:01;;;;;;;1.17;1.17;;;5.30;99.90;;;;;;4932747;29;20071;-79
2021/12/06 10:37:30;;;;;;;0.10;0.10;;;5.50;99.90;;;;;;4930119;29;20039;-79
2021/12/06 10:39:57;;;;;;;0.10;0.10;;;5.50;99.90;;;;;;4927555;29;20031;-80
2021/12/06 10:42:41;;;;;;;0.10;0.10;;;5.50;99.90;;;;;;4928045;29;20032;-79
2021/12/06 10:45:14;;;;;;;0.10;0.10;;;5.30;99.90;;;;;;4927830;29;20035;-80
2021/12/06 10:47:40;;;;;;;0.10;0.10;;;5.40;99.90;;;;;;4929978;29;20140;-79
2021/12/06 10:50:16;;;;;;;0.73;0.73;;;5.70;99.90;;;;;;4929760;29;20028;-80
2021/12/06 10:52:56;;;;;;;0.10;0.10;;;5.80;99.90;;;;;;4925300;29;20056;-79
2021/12/06 10:55:25;;;;;;;0.10;0.10;;;5.90;99.90;;;;;;4928772;29;20020;-79
2021/12/06 10:57:54;;;;;;;0.32;0.32;;;5.90;99.90;;;;;;4928975;29;20104;-81
2021/12/06 11:00:30;;;;;;;0.10;0.10;;;5.80;99.90;;;;;;4929160;29;20059;-80
2021/12/06 11:02:56;;;;;;;0.10;0.10;;;5.70;99.90;;;;;;4928494;29;20078;-80
2021/12/06 11:05:25;;;;;;;0.10;0.10;;;5.70;99.90;;;;;;4930226;29;20497;-79
2021/12/06 11:08:08;;;;;;;0.10;0.10;;;5.90;99.90;;;;;;4928401;29;20524;-79
2021/12/06 11:10:39;;;;;;;0.10;0.10;;;6.00;99.90;;;;;;4929456;29;20028;-81
2021/12/06 11:13:33;;;;;;;0.10;0.10;;;6.00;99.90;;;;;;4929360;29;20398;-81
2021/12/06 11:16:07;;;;;;;0.10;0.10;;;6.00;99.90;;;;;;4932655;29;20482;-82
2021/12/06 11:18:36;;;;;;;0.30;0.30;;;6.00;99.90;;;;;;4933070;29;20056;-81
2021/12/06 11:21:04;;;;;;;0.10;0.10;;;6.00;99.90;;;;;;4932590;29;20067;-81
2021/12/06 11:23:30;;;;;;;0.10;0.10;;;6.00;99.90;;;;;;4935284;29;20501;-80
2021/12/06 11:26:03;;;;;;;0.10;0.10;;;6.10;99.90;;;;;;4932687;29;20039;-80
2021/12/06 11:28:32;;;;;;;0.10;0.10;;;6.20;99.90;;;;;;4935237;29;20473;-80
2021/12/06 11:31:01;;;;;;;0.10;0.10;;;6.30;99.90;;;;;;4929878;29;20413;-81
2021/12/06 11:33:32;;;;;;;0.22;0.22;;;6.30;99.90;;;;;;4934597;29;20035;-81
2021/12/06 11:36:00;;;;;;;0.10;0.10;;;6.30;99.90;;;;;;4934942;29;20198;-81
2021/12/06 11:38:30;;;;;;;0.10;0.10;;;6.40;99.90;;;;;;4931001;29;20131;-81
2021/12/06 11:40:58;;;;;;;0.10;0.10;;;6.60;99.90;;;;;;4931568;29;20408;-82
2021/12/06 11:43:25;;;;;;;0.25;0.25;;;6.80;99.90;;;;;;4931290;29;20066;-81
2021/12/06 11:45:57;;;;;;;0.10;0.10;;;6.80;99.90;;;;;;4931416;29;20111;-81
2021/12/06 11:48:25;;;;;;;0.10;0.10;;;6.70;99.90;;;;;;4933394;29;20044;-81
2021/12/06 11:51:01;;;;;;;0.10;0.10;;;6.90;99.90;;;;;;4935436;29;20432;-81
2021/12/06 11:53:35;;;;;;;1.40;1.35;;;7.00;99.90;;;;;;4931993;29;20055;-81
2021/12/06 11:56:03;;;;;;;0.10;0.10;;;6.90;99.90;;;;;;4931944;29;20082;-81
2021/12/06 11:58:32;;;;;;;0.10;0.10;;;6.90;99.90;;;;;;4933767;29;20063;-81
2021/12/06 12:01:09;;;;;;;0.10;0.10;;;6.90;99.90;;;;;;4929411;29;20067;-80
2021/12/06 12:03:37;;;;;;;0.10;0.10;;;7.00;99.90;;;;;;4933130;29;20176;-82
2021/12/06 12:06:19;;;;;;;0.10;0.10;;;7.10;99.90;;;;;;4931785;29;20430;-80
2021/12/06 12:08:45;;;;;;;0.10;0.10;;;6.90;99.90;;;;;;4931308;29;20106;-80
2021/12/06 12:11:11;;;;;;;1.33;1.23;;;6.90;99.90;;;;;;4931601;29;20478;-80
2021/12/06 12:13:38;;;;;;;0.10;0.10;;;7.10;99.90;;;;;;4932059;29;20039;-80
2021/12/06 12:16:07;;;;;;;0.10;0.10;;;7.20;99.90;;;;;;4932221;29;20450;-81
2021/12/06 12:18:35;;;;;;;0.10;0.10;;;7.20;99.90;;;;;;4931002;29;20027;-82
2021/12/06 12:21:02;;;;;;;0.10;0.10;;;7.20;99.90;;;;;;4932293;29;20082;-82
2021/12/06 12:23:33;;;;;;;0.10;0.10;;;7.00;99.90;;;;;;4929457;29;20402;-83
2021/12/06 12:26:09;;;;;;;0.10;0.10;;;7.00;99.90;;;;;;4931715;29;20059;-81
2021/12/06 12:28:47;;;;;;;0.10;0.10;;;7.10;99.90;;;;;;4933603;29;20031;-82
2021/12/06 12:31:13;;;;;;;0.40;0.40;;;7.10;99.90;;;;;;4931212;29;20027;-82
2021/12/06 12:33:39;;;;;;;0.10;0.10;;;7.00;99.90;;;;;;4933030;29;20038;-82
2021/12/06 12:36:10;;;;;;;0.80;0.80;;;7.00;99.90;;;;;;4933605;29;20031;-83
2021/12/06 12:38:37;;;;;;;0.10;0.10;;;7.20;99.90;;;;;;4931251;29;20036;-82
2021/12/06 12:41:14;;;;;;;0.10;0.10;;;7.10;99.90;;;;;;4933781;29;20020;-82
2021/12/06 12:43:54;;;;;;;0.15;0.15;;;6.90;99.90;;;;;;4931517;29;20390;-82
2021/12/06 12:46:25;;;;;;;0.10;0.10;;;6.90;99.90;;;;;;4929191;29;20031;-82
2021/12/06 12:49:00;;;;;;;0.10;0.10;;;6.80;99.90;;;;;;4932473;29;20090;-82
2021/12/06 12:51:37;;;;;;;0.10;0.10;;;6.90;99.90;;;;;;4929528;29;20085;-81
2021/12/06 12:54:17;;;;;;;0.10;0.10;;;6.70;99.90;;;;;;4946187;29;20036;-82
2021/12/06 12:56:47;;;;;;;0.10;0.10;;;6.60;99.90;;;;;;4933733;29;20742;-81
2021/12/06 12:59:36;;;;;;;0.10;0.10;;;6.60;99.90;;;;;;4932558;29;20067;-83
2021/12/06 13:02:34;;;;;;;0.10;0.10;;;6.40;99.90;;;;;;4930926;29;20028;-83
2021/12/06 13:05:00;;;;;;;0.10;0.10;;;6.10;99.90;;;;;;4923746;29;20024;-82
2021/12/06 13:07:50;;;;;;;0.10;0.10;;;6.00;99.90;;;;;;4932609;29;20039;-82
2021/12/06 13:10:40;;;;;;;0.28;0.28;;;6.20;99.90;;;;;;4933298;29;20031;-83
2021/12/06 13:13:16;;;;;;;0.10;0.10;;;6.20;99.90;;;;;;4931818;29;20067;-83
2021/12/06 13:15:56;;;;;;;0.10;0.10;;;6.20;99.90;;;;;;4932563;29;20118;-82
2021/12/06 13:19:03;;;;;;;0.10;0.10;;;6.40;99.90;;;;;;4934457;29;20057;-81
2021/12/06 13:21:55;;;;;;;0.10;0.10;;;6.40;99.90;;;;;;4924096;29;20030;-81
2021/12/06 13:24:21;;;;;;;0.10;0.10;;;6.50;99.90;;;;;;4944488;29;20039;-82